Corsicana, TX

11:07 AM CDT on May 22, 2015 (GMT -0500)
Campbell-Corsicana Municipal | | Change Station
CLOSE
Current Station
Airport
Location: Corsicana,
Elevation: 443 ft
Nearby Weather Stations
Active Advisory: Flood Warning

Elev 443 ft 32.03 °N, 96.40 °W | Updated 14 minutes ago

Overcast
Overcast
66 °F
Feels Like 66 °F
N
12
Wind Variable Wind from East

Today
High -- | Low -- °F
--% Chance of Precip.
Yesterday
High -- | Low -- °F
Precip. -- in
6:24 AM 8:21 PM
Waxing Crescent, 22% visible
Pressure 30.15 in
Visibility 10.0 miles
Clouds Overcast 1100 ft
Dew Point 59 °F
Humidity 78%
Rainfall 0.00 in
Snow Depth Not available.
UV 3 out of 12
Pollen 2.30 out of 12
Air Quality Not available.
Flu Activity Sporadic
METAR KCRS 221553Z AUTO 10010KT 10SM OVC011 19/15 A3016 RMK AO2 SLP210 T01890150

More Conditions Fewer Conditions

Pressure 30.15 in
Visibility 10.0 miles
Clouds Overcast 1100 ft
Dew Point 59 °F
Humidity 78%
Rainfall 0.00 in
Snow Depth Not available.
UV 3 out of 12
Pollen 2.30 out of 12
Air Quality Not available.
Flu Activity Sporadic
METAR KCRS 221553Z AUTO 10010KT 10SM OVC011 19/15 A3016 RMK AO2 SLP210 T01890150

More Conditions Fewer Conditions

Nowcast | as of 9:00 am CDT on May 22, 2015

An area of rain and thunderstorms will spread east and affect areas from Graham and Bowie to Bonham and Greenville through midday. Lightning and heavy rain will occur within this area. Brief heavy rain could result in some street flooding. Elsewhere...isolated showers are possible with rain amounts generally less than one tenth of an inch. Otherwise...it will be cloudy and cool with temperatures holding in the upper 50s and 60s through midday.

×

10-Day Weather Forecast

Almanac

Astronomy

May. 22, 2015 Rise Set
Actual Time
Civil Twilight
Nautical Twilight
Astronomical Twilight
Moon
Length of Visible Light
Length of Day
Tomorrow will be .
, % of the Moon is Illuminated

Today's Extremes

State Highs State Lows

Community

WunderPhotos

Upload Photos

1,823,251 photos uploaded!

WunderBlogs® & News

Nearby

Air Quality

  Air Quality AQ Index Pollutant
Not available.

Snow Depth

Station Depth Elevation

Earthquake Activity

City Distance Mag. Time & Date
Minimum magnitude displayed is 2.5.

Coastal Water Temperatures

Place Temperature

Stations

Nearby Weather Stations

Station Location Temp. Windchill Dew Point Humidity Wind Precip. Elev Updated Type
                   
Flood Warning
Statement as of 10:24 AM CDT on May 22, 2015

The Flood Warning continues for
the Trinity River at Trinidad.
* At 1000 am Friday the stage was 41.16 feet.
* Flood stage is 33 feet.
* Moderate flooding is occurring and moderate flooding is forecast.
* Forecast... the river will continue rising to a crest near 42 feet
by Saturday morning then begin falling but remain above moderate
flood stage through the weekend.


Lat... Lon 3219 9626 3206 9613 3207 9600 3223 9613